N734SP KRNM-KRNM

Flight info

Callsign N734SP
Flight time 0h 15m
Altitude 2400
Route PATTERN WORK
Aircraft C172/L-SG/C

Departure

Time 2026-04-18 18:37
Airport Ramona Airport (KRNM)

Arrival

Time 2026-04-18 18:52
Airport Ramona Airport (KRNM)
Time Latitude Longitude Altitude Speed Heading
2026-04-18 18:31 33.03991 -116.91026 1394 ft 0 kts 279°
2026-04-18 18:33 33.03990 -116.91034 1394 ft 4 kts 250°
2026-04-18 18:33 33.03979 -116.91043 1400 ft 2 kts 164°
2026-04-18 18:33 33.03977 -116.91042 1399 ft 0 kts 153°
2026-04-18 18:34 33.03975 -116.91041 1398 ft 1 kts 150°
2026-04-18 18:34 33.03950 -116.91025 1404 ft 8 kts 174°
2026-04-18 18:34 33.03907 -116.90979 1395 ft 14 kts 101°
2026-04-18 18:34 33.03886 -116.90844 1396 ft 16 kts 100°
2026-04-18 18:35 33.03867 -116.90758 1404 ft 10 kts 134°
2026-04-18 18:35 33.03839 -116.90749 1397 ft 1 kts 190°
2026-04-18 18:35 33.03823 -116.90757 1398 ft 5 kts 212°
2026-04-18 18:35 33.03812 -116.90817 1402 ft 10 kts 281°
2026-04-18 18:36 33.03820 -116.90870 1396 ft 19 kts 280°
2026-04-18 18:36 33.03868 -116.91193 1394 ft 57 kts 280°
2026-04-18 18:36 33.03943 -116.91719 1430 ft 68 kts 281°
2026-04-18 18:36 33.04042 -116.92354 1528 ft 80 kts 281°
2026-04-18 18:37 33.04130 -116.93019 1735 ft 78 kts 278°
2026-04-18 18:37 33.04152 -116.93625 1937 ft 77 kts 277°
2026-04-18 18:37 33.04222 -116.94280 2136 ft 75 kts 271°
2026-04-18 18:37 33.04243 -116.94951 2249 ft 85 kts 265°
2026-04-18 18:38 33.03903 -116.95414 2451 ft 82 kts 186°
2026-04-18 18:38 33.03476 -116.95063 2594 ft 87 kts 112°
2026-04-18 18:38 33.03334 -116.94253 2576 ft 105 kts 103°
2026-04-18 18:38 33.03197 -116.93383 2520 ft 108 kts 103°
2026-04-18 18:39 33.03070 -116.92504 2523 ft 105 kts 103°
2026-04-18 18:39 33.02923 -116.91634 2502 ft 109 kts 103°
2026-04-18 18:39 33.02775 -116.90775 2532 ft 103 kts 102°
2026-04-18 18:39 33.02653 -116.89924 2471 ft 104 kts 101°
2026-04-18 18:40 33.02556 -116.89071 2436 ft 102 kts 94°
2026-04-18 18:40 33.02839 -116.88410 2501 ft 95 kts 27°
2026-04-18 18:40 33.03497 -116.88516 2318 ft 105 kts 317°
2026-04-18 18:40 33.03691 -116.89298 2076 ft 93 kts 271°
2026-04-18 18:41 33.03707 -116.90003 1745 ft 79 kts 276°
2026-04-18 18:41 33.03792 -116.90680 1467 ft 91 kts 281°
2026-04-18 18:41 33.03898 -116.91387 1419 ft 85 kts 281°
2026-04-18 18:41 33.04002 -116.92071 1634 ft 83 kts 282°
2026-04-18 18:42 33.04110 -116.92738 1857 ft 80 kts 281°
2026-04-18 18:42 33.04203 -116.93384 2060 ft 79 kts 279°
2026-04-18 18:42 33.04298 -116.94033 2250 ft 79 kts 281°
2026-04-18 18:42 33.04410 -116.94680 2413 ft 83 kts 276°
2026-04-18 18:43 33.03657 -116.95057 2697 ft 84 kts 130°
2026-04-18 18:43 33.03504 -116.94362 2739 ft 95 kts 101°
2026-04-18 18:43 33.03373 -116.93584 2714 ft 99 kts 103°
2026-04-18 18:44 33.03250 -116.92769 2671 ft 101 kts 102°
2026-04-18 18:44 33.03134 -116.91936 2582 ft 101 kts 102°
2026-04-18 18:44 33.02996 -116.91124 2473 ft 100 kts 105°
2026-04-18 18:44 33.02852 -116.90315 2389 ft 99 kts 103°
2026-04-18 18:45 33.02727 -116.89533 2356 ft 93 kts 103°
2026-04-18 18:45 33.02601 -116.88806 2343 ft 88 kts 104°
2026-04-18 18:45 33.02618 -116.88110 2359 ft 84 kts 60°
2026-04-18 18:45 33.03142 -116.87846 2301 ft 80 kts 343°
2026-04-18 18:46 33.03470 -116.88308 2149 ft 82 kts 280°
2026-04-18 18:46 33.03565 -116.88999 1988 ft 82 kts 278°
2026-04-18 18:46 33.03646 -116.89664 1800 ft 80 kts 279°
2026-04-18 18:46 33.03741 -116.90320 1610 ft 81 kts 280°
2026-04-18 18:47 33.03837 -116.90987 1418 ft 81 kts 280°
2026-04-18 18:47 33.03931 -116.91608 1425 ft 76 kts 281°
2026-04-18 18:47 33.04037 -116.92284 1548 ft 86 kts 282°
2026-04-18 18:47 33.04158 -116.92983 1742 ft 86 kts 281°
2026-04-18 18:48 33.04268 -116.93687 1947 ft 86 kts 281°
2026-04-18 18:48 33.04384 -116.94343 2190 ft 77 kts 281°
2026-04-18 18:48 33.04468 -116.94933 2404 ft 71 kts 259°
2026-04-18 18:48 33.04083 -116.95278 2480 ft 82 kts 177°
2026-04-18 18:49 33.03601 -116.94866 2559 ft 96 kts 115°
2026-04-18 18:49 33.03491 -116.94044 2592 ft 104 kts 103°
2026-04-18 18:49 33.03358 -116.93162 2501 ft 111 kts 101°
2026-04-18 18:49 33.03229 -116.92256 2430 ft 109 kts 102°
2026-04-18 18:50 33.03088 -116.91389 2401 ft 104 kts 103°
2026-04-18 18:50 33.02945 -116.90568 2421 ft 99 kts 106°
2026-04-18 18:50 33.02800 -116.89776 2387 ft 99 kts 104°
2026-04-18 18:50 33.02636 -116.88992 2379 ft 96 kts 108°
2026-04-18 18:51 33.02525 -116.88251 2478 ft 82 kts 79°
2026-04-18 18:51 33.02903 -116.87807 2476 ft 83 kts
2026-04-18 18:51 33.03410 -116.88103 2393 ft 91 kts 298°
2026-04-18 18:51 33.03551 -116.88884 2157 ft 102 kts 278°
2026-04-18 18:52 33.03664 -116.89736 1884 ft 105 kts 279°
2026-04-18 18:52 33.03770 -116.90469 1597 ft 79 kts 283°
2026-04-18 18:52 33.03851 -116.91072 1397 ft 68 kts 281°
2026-04-18 18:52 33.03917 -116.91521 1388 ft 36 kts 280°
2026-04-18 18:53 33.03956 -116.91784 1386 ft 29 kts 282°
2026-04-18 18:53 33.03986 -116.91975 1386 ft 15 kts 289°
2026-04-18 18:53 33.04032 -116.91994 1388 ft 6 kts 16°
2026-04-18 18:53 33.04049 -116.91967 1387 ft 3 kts 82°
2026-04-18 18:54 33.04049 -116.91954 1389 ft 1 kts 99°
2026-04-18 18:54 33.04043 -116.91912 1389 ft 10 kts 97°
2026-04-18 18:54 33.04029 -116.91807 1389 ft 13 kts 103°
2026-04-18 18:54 33.04013 -116.91701 1388 ft 13 kts 99°
2026-04-18 18:55 33.03991 -116.91555 1391 ft 22 kts 98°
2026-04-18 18:55 33.03968 -116.91385 1395 ft 21 kts 103°
2026-04-18 18:55 33.03938 -116.91190 1398 ft 26 kts 99°
2026-04-18 18:55 33.03910 -116.91003 1403 ft 20 kts 99°
2026-04-18 18:56 33.03886 -116.90847 1396 ft 18 kts 102°
2026-04-18 18:56 33.03862 -116.90752 1402 ft 8 kts 157°
2026-04-18 18:56 33.03849 -116.90750 1397 ft 0 kts 175°
2026-04-18 18:56 33.03847 -116.90749 1397 ft 2 kts 182°
2026-04-18 18:57 33.03808 -116.90781 1401 ft 13 kts 256°
2026-04-18 18:57 33.03816 -116.90844 1400 ft 11 kts 280°
2026-04-18 18:57 33.03859 -116.91125 1398 ft 53 kts 278°
2026-04-18 18:57 33.03931 -116.91634 1436 ft 63 kts 280°
2026-04-18 18:58 33.04023 -116.92228 1466 ft 83 kts 287°
2026-04-18 18:58 33.04154 -116.92831 1715 ft 74 kts 284°
2026-04-18 18:58 33.04258 -116.93416 1945 ft 67 kts 275°
2026-04-18 18:58 33.04356 -116.94005 2052 ft 76 kts 285°
2026-04-18 18:59 33.04525 -116.94631 2188 ft 79 kts 287°
2026-04-18 18:59 33.04745 -116.95286 2256 ft 92 kts 292°
2026-04-18 18:59 33.05006 -116.96015 2390 ft 97 kts 296°
2026-04-18 18:59 33.05351 -116.96689 2646 ft 90 kts 298°
2026-04-18 19:00 33.05724 -116.97310 2812 ft 94 kts 309°
2026-04-18 19:00 33.06163 -116.97919 2952 ft 98 kts 308°
2026-04-18 19:00 33.06581 -116.98595 3044 ft 105 kts 308°
2026-04-18 19:00 33.07096 -116.99220 3222 ft 104 kts 316°
2026-04-18 19:01 33.07667 -116.99713 3258 ft 110 kts 329°
2026-04-18 19:01 33.08103 -117.00057 3251 ft 115 kts 327°
2026-04-18 19:01 33.08777 -117.00578 3243 ft 112 kts 330°
2026-04-18 19:01 33.09421 -117.01097 3236 ft 111 kts 325°
2026-04-18 19:02 33.10051 -117.01586 3290 ft 106 kts 332°
2026-04-18 19:02 33.10861 -117.02226 3313 ft 108 kts 320°
2026-04-18 19:02 33.11408 -117.02840 3281 ft 114 kts 319°
2026-04-18 19:02 33.11844 -117.03647 3216 ft 115 kts 286°
2026-04-18 19:03 33.11959 -117.04279 3196 ft 115 kts 279°
2026-04-18 19:03 33.12127 -117.05215 3183 ft 114 kts 281°
2026-04-18 19:03 33.12297 -117.06126 3133 ft 112 kts 280°
2026-04-18 19:04 33.12660 -117.07930 3036 ft 108 kts 281°
2026-04-18 19:04 33.12809 -117.08795 2955 ft 109 kts 281°
2026-04-18 19:04 33.12998 -117.09662 2914 ft 106 kts 284°
2026-04-18 19:04 33.13219 -117.10498 2840 ft 108 kts 287°
2026-04-18 19:05 33.13449 -117.11352 2741 ft 110 kts 290°
2026-04-18 19:05 33.13765 -117.13076 2591 ft 108 kts 273°
2026-04-18 19:05 33.13804 -117.13968 2519 ft 105 kts 270°
2026-04-18 19:06 33.13847 -117.14840 2430 ft 107 kts 274°
2026-04-18 19:06 33.13760 -117.16548 2306 ft 103 kts 264°
2026-04-18 19:06 33.13762 -117.17419 2160 ft 108 kts 275°
2026-04-18 19:07 33.13836 -117.18302 2131 ft 101 kts 266°
2026-04-18 19:07 33.13822 -117.19160 2050 ft 106 kts 277°
2026-04-18 19:07 33.13951 -117.20046 1909 ft 111 kts 279°
2026-04-18 19:07 33.13934 -117.20957 1814 ft 110 kts 265°
2026-04-18 19:08 33.13896 -117.21864 1723 ft 108 kts 262°
2026-04-18 19:08 33.13747 -117.22750 1587 ft 110 kts 257°
2026-04-18 19:08 33.13550 -117.23675 1322 ft 115 kts 258°
2026-04-18 19:08 33.13400 -117.24494 1175 ft 94 kts 257°
2026-04-18 19:09 33.13288 -117.25232 1028 ft 86 kts 259°
2026-04-18 19:09 33.13182 -117.25865 832 ft 73 kts 259°
2026-04-18 19:09 33.13093 -117.26459 627 ft 71 kts 257°
2026-04-18 19:09 33.12990 -117.27011 434 ft 65 kts 259°
2026-04-18 19:10 33.12904 -117.27527 320 ft 59 kts 259°
2026-04-18 19:10 33.12843 -117.27869 319 ft 15 kts 240°
2026-04-18 19:10 33.12828 -117.27893 319 ft 2 kts 248°
2026-04-18 19:10 33.12822 -117.27908 319 ft 0 kts 238°
2026-04-18 19:11 33.12813 -117.27919 319 ft 7 kts 226°
2026-04-18 19:11 33.12770 -117.27979 319 ft 10 kts 216°
2026-04-18 19:11 33.12751 -117.27965 319 ft 11 kts 78°
2026-04-18 19:11 33.12772 -117.27827 319 ft 17 kts 81°
2026-04-18 19:12 33.12788 -117.27731 320 ft 13 kts 78°
2026-04-18 19:12 33.12785 -117.27673 320 ft 5 kts 153°
2026-04-18 19:12 33.12768 -117.27658 321 ft 4 kts 47°
2026-04-18 19:12 33.12773 -117.27647 321 ft 2 kts 81°
2026-04-18 19:13 33.12773 -117.27644 321 ft 0 kts 81°